createdAt,value
2017-07-25T00:01:53.114Z,0
2017-07-25T00:12:07.832Z,0
2017-07-25T00:22:21.787Z,0
2017-07-25T00:32:36.394Z,0
2017-07-25T00:42:50.847Z,0
2017-07-25T00:53:06.208Z,0
2017-07-25T01:03:20.985Z,0
2017-07-25T01:13:35.253Z,0
2017-07-25T01:23:49.315Z,0
2017-07-25T01:34:04.650Z,0
2017-07-25T01:44:18.808Z,0
2017-07-25T01:54:32.850Z,0
2017-07-25T02:04:48.006Z,0
2017-07-25T02:15:03.499Z,0
2017-07-25T02:25:19.210Z,0
2017-07-25T02:35:34.617Z,0
2017-07-25T02:45:49.177Z,0
2017-07-25T02:56:04.096Z,0
2017-07-25T03:06:18.323Z,0
2017-07-25T03:16:32.251Z,4
2017-07-25T03:26:47.321Z,16
2017-07-25T03:37:01.188Z,40
2017-07-25T03:47:16.398Z,108
2017-07-25T03:57:31.347Z,332
2017-07-25T04:07:46.204Z,392
2017-07-25T04:18:00.014Z,388
2017-07-25T04:28:14.675Z,712
2017-07-25T04:38:29.556Z,1684
2017-07-25T04:48:44.197Z,2104
2017-07-25T04:58:58.280Z,2788
2017-07-25T05:09:13.503Z,2248
2017-07-25T05:19:29.155Z,2704
2017-07-25T05:29:43.438Z,4240
2017-07-25T05:39:58.382Z,4904
2017-07-25T05:50:13.534Z,5076
2017-07-25T06:00:28.443Z,5680
2017-07-25T06:10:43.507Z,6204
2017-07-25T06:20:59.231Z,6904
2017-07-25T06:31:15.053Z,7508
2017-07-25T06:41:29.341Z,7124
2017-07-25T06:51:44.868Z,6936
2017-07-25T07:02:00.660Z,7376
2017-07-25T07:12:15.462Z,7740
2017-07-25T07:22:30.151Z,6288
2017-07-25T07:32:44.495Z,9468
2017-07-25T07:42:58.286Z,14680
2017-07-25T07:53:12.682Z,17952
2017-07-25T08:03:27.371Z,18688
2017-07-25T08:13:42.620Z,22112
2017-07-25T08:23:57.190Z,18016
2017-07-25T08:34:12.629Z,25632
2017-07-25T08:44:26.466Z,24768
2017-07-25T08:54:41.527Z,19520
2017-07-25T09:04:57.066Z,13792
2017-07-25T09:15:11.651Z,17112
2017-07-25T09:25:26.810Z,13680
2017-07-25T09:35:41.031Z,26112
2017-07-25T09:45:56.241Z,21088
2017-07-25T09:56:11.735Z,19744
2017-07-25T10:06:26.866Z,16440
2017-07-25T10:16:42.077Z,10784
2017-07-25T10:26:56.490Z,17952
2017-07-25T10:37:11.621Z,18944
2017-07-25T10:47:26.956Z,21792
2017-07-25T10:57:42.173Z,17600
2017-07-25T11:07:57.304Z,26624
2017-07-25T11:18:12.307Z,29728
2017-07-25T11:28:27.444Z,44096
2017-07-25T11:38:41.940Z,31392
2017-07-25T11:48:56.338Z,31776
2017-07-25T11:59:11.155Z,21856
2017-07-25T12:09:26.282Z,6112
2017-07-25T12:19:41.451Z,13080
2017-07-25T12:29:55.443Z,20064
2017-07-25T12:40:10.502Z,24544
2017-07-25T12:50:24.607Z,22560
2017-07-25T13:00:39.583Z,22240
2017-07-25T13:10:53.336Z,27872
2017-07-25T13:21:08.065Z,19424
2017-07-25T13:31:23.666Z,21088
2017-07-25T13:41:38.195Z,30048
2017-07-25T13:51:53.130Z,17056
2017-07-25T14:02:08.553Z,16784
2017-07-25T14:12:23.918Z,16128
2017-07-25T14:22:38.909Z,13588
2017-07-25T14:32:54.551Z,15124
2017-07-25T14:43:09.105Z,6488
2017-07-25T14:53:22.997Z,3576
2017-07-25T15:03:37.428Z,14756
2017-07-25T15:13:51.886Z,17952
2017-07-25T15:24:06.700Z,20192
2017-07-25T15:34:21.149Z,8900
2017-07-25T15:44:36.473Z,5912
2017-07-25T15:54:51.905Z,11704
2017-07-25T16:05:07.480Z,7184
2017-07-25T16:15:20.988Z,4668
2017-07-25T16:25:35.191Z,4744
2017-07-25T16:35:49.218Z,5872
2017-07-25T16:46:04.815Z,3372
2017-07-25T16:56:18.754Z,3692
2017-07-25T17:06:34.495Z,4484
2017-07-25T17:16:48.412Z,2420
2017-07-25T17:27:03.013Z,4464
2017-07-25T17:37:17.427Z,3000
2017-07-25T17:57:47.309Z,2880
2017-07-25T18:08:01.384Z,3076
2017-07-25T18:18:16.098Z,1280
2017-07-25T18:28:31.665Z,1112
2017-07-25T18:38:47.307Z,568
2017-07-25T18:49:01.868Z,512
2017-07-25T18:59:16.552Z,332
2017-07-25T19:09:31.966Z,136
2017-07-25T19:19:46.251Z,40
2017-07-25T19:30:01.413Z,116
2017-07-25T19:40:16.224Z,12
2017-07-25T19:50:30.739Z,0
2017-07-25T20:00:46.072Z,4
2017-07-25T20:11:00.997Z,0
2017-07-25T20:21:16.618Z,0
2017-07-25T20:31:31.623Z,0
2017-07-25T20:41:45.749Z,0
2017-07-25T20:52:01.295Z,0
2017-07-25T21:02:15.493Z,0
2017-07-25T21:12:29.856Z,0
2017-07-25T21:22:45.340Z,0
2017-07-25T21:33:00.930Z,0
2017-07-25T21:43:14.673Z,0
2017-07-25T21:53:30.139Z,0
2017-07-25T22:03:45.221Z,0
2017-07-25T22:14:00.165Z,0
2017-07-25T22:24:14.976Z,0
2017-07-25T22:34:29.256Z,0
2017-07-25T22:44:43.623Z,0
2017-07-25T22:54:58.938Z,0
2017-07-25T23:05:13.466Z,0
2017-07-25T23:15:28.175Z,0
2017-07-25T23:25:43.168Z,0
2017-07-25T23:35:57.467Z,0
2017-07-25T23:46:11.072Z,0
2017-07-25T23:56:26.179Z,0
